createdAt,value
2022-07-29T00:01:55.061Z,2.88
2022-07-29T00:04:24.780Z,2.70
2022-07-29T00:07:04.993Z,2.53
2022-07-29T00:09:50.670Z,2.35
2022-07-29T00:12:26.278Z,2.67
2022-07-29T00:14:58.314Z,2.75
2022-07-29T00:17:28.205Z,2.95
2022-07-29T00:19:57.757Z,2.50
2022-07-29T00:22:27.222Z,2.22
2022-07-29T00:24:58.296Z,2.30
2022-07-29T00:27:27.882Z,2.25
2022-07-29T00:29:57.456Z,1.85
2022-07-29T00:32:27.030Z,1.90
2022-07-29T00:35:14.256Z,2.00
2022-07-29T00:37:43.891Z,2.13
2022-07-29T00:40:15.092Z,1.75
2022-07-29T00:42:45.719Z,2.17
2022-07-29T00:45:17.917Z,1.88
2022-07-29T00:47:47.591Z,1.95
2022-07-29T00:50:17.242Z,1.67
2022-07-29T00:52:47.010Z,1.90
2022-07-29T00:55:19.129Z,2.13
2022-07-29T00:57:49.160Z,2.08
2022-07-29T01:00:23.440Z,2.15
2022-07-29T01:02:53.643Z,2.00
2022-07-29T01:05:50.638Z,2.35
2022-07-29T01:08:19.776Z,2.70
2022-07-29T01:10:51.417Z,2.28
2022-07-29T01:13:21.462Z,2.25
2022-07-29T01:16:09.462Z,2.58
2022-07-29T01:18:47.159Z,2.33
2022-07-29T01:21:45.501Z,2.10
2022-07-29T01:24:37.981Z,1.98
2022-07-29T01:27:34.652Z,2.10
2022-07-29T01:30:07.916Z,2.25
2022-07-29T01:32:41.562Z,2.63
2022-07-29T01:35:19.407Z,2.10
2022-07-29T01:37:58.007Z,2.03
2022-07-29T01:40:37.843Z,1.73
2022-07-29T01:43:16.933Z,2.03
2022-07-29T01:45:55.286Z,1.80
2022-07-29T01:48:34.054Z,1.67
2022-07-29T01:51:17.126Z,1.75
2022-07-29T01:53:57.366Z,1.83
2022-07-29T01:56:30.693Z,1.90
2022-07-29T01:59:01.382Z,2.00
2022-07-29T02:01:33.723Z,1.92
2022-07-29T02:04:07.602Z,2.05
2022-07-29T02:14:13.334Z,1.70
2022-07-29T02:16:46.325Z,1.65
2022-07-29T03:33:02.990Z,2.13
2022-07-29T03:35:43.640Z,2.03
2022-07-29T03:38:13.222Z,1.75
2022-07-29T03:40:52.028Z,2.03
2022-07-29T03:43:22.811Z,1.67
2022-07-29T03:45:56.440Z,2.33
2022-07-29T03:48:30.242Z,1.70
2022-07-29T03:56:04.414Z,1.98
2022-07-29T03:58:35.085Z,1.48
2022-07-29T04:01:05.032Z,1.77
2022-07-29T04:03:36.687Z,1.85
2022-07-29T04:06:09.127Z,2.50
2022-07-29T04:08:38.719Z,1.95
2022-07-29T04:11:08.544Z,1.98
2022-07-29T04:13:38.379Z,1.80
2022-07-29T04:16:11.401Z,2.33
2022-07-29T04:21:11.852Z,2.22
2022-07-29T04:23:53.154Z,2.10
2022-07-29T04:26:23.899Z,1.77
2022-07-29T04:28:53.403Z,2.20
2022-07-29T04:31:25.852Z,2.05
2022-07-29T04:33:57.031Z,2.05
2022-07-29T04:36:29.303Z,1.92
2022-07-29T04:42:00.245Z,2.13
2022-07-29T04:44:30.947Z,1.95
2022-07-29T04:47:10.766Z,2.33
2022-07-29T04:49:42.434Z,1.65
2022-07-29T04:52:11.946Z,1.65
2022-07-29T04:54:41.541Z,1.88
2022-07-29T04:57:11.042Z,1.35
2022-07-29T04:59:40.535Z,2.20
2022-07-29T05:02:10.013Z,2.00
2022-07-29T05:04:40.910Z,1.90
2022-07-29T05:07:10.607Z,2.80
2022-07-29T05:09:40.173Z,1.55
2022-07-29T05:12:10.738Z,1.67
2022-07-29T05:14:40.333Z,1.50
2022-07-29T05:17:09.993Z,1.45
2022-07-29T05:37:22.998Z,2.25
2022-07-29T05:39:56.749Z,1.80
2022-07-29T05:47:26.042Z,1.88
2022-07-29T07:05:36.165Z,1.60
2022-07-29T07:15:40.142Z,1.20
2022-07-29T07:18:10.030Z,1.30
2022-07-29T17:09:14.961Z,5.03
2022-07-29T17:11:51.642Z,4.90
2022-07-29T17:14:25.804Z,3.55
2022-07-29T17:17:00.514Z,2.45
2022-07-29T17:22:20.237Z,2.55
2022-07-29T17:24:49.915Z,2.13
2022-07-29T17:29:49.165Z,1.67
2022-07-29T17:44:46.943Z,1.35
2022-07-29T17:47:16.935Z,1.20
2022-07-29T18:14:49.602Z,1.52
2022-07-29T18:17:19.104Z,1.42
2022-07-29T18:24:48.950Z,1.48
2022-07-29T18:29:51.170Z,1.52
2022-07-29T18:32:28.810Z,2.22
2022-07-29T18:35:02.475Z,1.45
2022-07-29T18:38:01.728Z,1.38
2022-07-29T18:40:23.900Z,1.30
2022-07-29T18:42:53.520Z,1.35
2022-07-29T18:45:22.987Z,1.20
2022-07-29T18:47:58.354Z,1.25
2022-07-29T18:50:29.551Z,1.10
2022-07-29T18:53:01.188Z,1.73
2022-07-29T18:55:32.135Z,1.45
2022-07-29T18:58:01.798Z,1.50
2022-07-29T19:00:31.504Z,1.40
2022-07-29T19:03:03.178Z,1.30
2022-07-29T19:05:33.364Z,1.33
2022-07-29T19:08:02.859Z,1.38
2022-07-29T19:10:33.868Z,2.65
2022-07-29T19:13:03.376Z,1.63
2022-07-29T19:15:32.877Z,1.70
2022-07-29T19:18:02.366Z,1.90
2022-07-29T19:23:01.451Z,2.10
2022-07-29T19:25:31.233Z,1.92
2022-07-29T19:28:06.843Z,2.20
2022-07-29T19:30:36.521Z,2.50
2022-07-29T19:38:04.732Z,2.85
2022-07-29T19:55:52.007Z,3.17
2022-07-29T19:58:22.475Z,3.33
2022-07-29T20:00:52.069Z,2.90
2022-07-29T20:03:23.017Z,2.80
2022-07-29T20:05:52.896Z,3.50
2022-07-29T20:08:22.416Z,3.60
2022-07-29T20:18:19.925Z,3.80
2022-07-29T20:25:51.789Z,3.65
2022-07-29T20:28:21.342Z,3.83
2022-07-29T20:30:51.085Z,4.05
2022-07-29T20:33:20.732Z,3.95
2022-07-29T20:35:51.700Z,3.40
2022-07-29T20:38:21.352Z,3.53
2022-07-29T20:40:53.246Z,3.60
2022-07-29T20:43:22.842Z,3.97
2022-07-29T20:45:52.588Z,3.90
2022-07-29T20:48:22.844Z,3.42
2022-07-29T20:50:54.940Z,3.80
2022-07-29T20:53:24.611Z,4.03
2022-07-29T20:55:54.932Z,3.92
2022-07-29T20:58:24.525Z,3.70
2022-07-29T21:00:54.292Z,3.75
2022-07-29T21:05:54.747Z,4.40
2022-07-29T21:08:24.467Z,4.03
2022-07-29T21:10:54.177Z,3.60
2022-07-29T21:13:25.442Z,4.13
2022-07-29T21:15:59.061Z,3.38
2022-07-29T21:18:30.593Z,3.70
2022-07-29T21:21:05.748Z,4.93
2022-07-29T21:23:35.921Z,3.33
2022-07-29T21:28:40.075Z,3.70
2022-07-29T21:31:12.469Z,3.33
2022-07-29T21:44:06.178Z,3.70
2022-07-29T21:46:36.454Z,3.47
2022-07-29T21:49:06.117Z,4.00
2022-07-29T21:54:06.609Z,4.00
2022-07-29T21:56:38.057Z,4.10
2022-07-29T21:59:09.614Z,4.22
2022-07-29T22:01:40.117Z,4.27
2022-07-29T22:04:09.751Z,4.25
2022-07-29T22:06:40.733Z,4.55
2022-07-29T22:09:10.352Z,4.38
2022-07-29T22:11:39.920Z,4.68
2022-07-29T22:14:09.502Z,5.05
2022-07-29T22:16:39.115Z,4.55
2022-07-29T22:19:08.985Z,5.10
2022-07-29T22:21:40.204Z,4.63
2022-07-29T22:24:11.194Z,4.25
2022-07-29T22:26:41.586Z,4.35
2022-07-29T22:29:11.614Z,4.40
2022-07-29T22:31:41.157Z,4.53
2022-07-29T22:34:13.150Z,4.50
2022-07-29T22:36:44.018Z,4.70
2022-07-29T22:39:15.685Z,4.57
2022-07-29T22:41:45.761Z,4.47
2022-07-29T22:44:15.355Z,3.83
2022-07-29T22:46:44.961Z,4.07
2022-07-29T22:49:14.561Z,4.40
2022-07-29T22:51:45.426Z,3.97
2022-07-29T22:54:15.045Z,4.97
2022-07-29T22:56:44.616Z,4.80
2022-07-29T22:59:14.112Z,3.92
2022-07-29T23:01:43.979Z,4.93
2022-07-29T23:04:13.890Z,4.95
2022-07-29T23:06:44.805Z,4.88
2022-07-29T23:09:14.339Z,5.18
2022-07-29T23:11:44.057Z,4.03
2022-07-29T23:14:13.706Z,4.30
2022-07-29T23:16:43.320Z,3.95
2022-07-29T23:19:13.069Z,4.68
2022-07-29T23:21:44.093Z,3.95
2022-07-29T23:24:13.678Z,4.30
2022-07-29T23:26:43.368Z,4.45
2022-07-29T23:29:13.183Z,4.07
2022-07-29T23:31:44.284Z,4.38
2022-07-29T23:34:17.790Z,4.10
2022-07-29T23:36:48.674Z,3.58
2022-07-29T23:39:18.403Z,3.63
2022-07-29T23:41:47.960Z,3.88
2022-07-29T23:44:17.456Z,3.55
2022-07-29T23:46:47.048Z,3.60
2022-07-29T23:49:16.849Z,3.20
2022-07-29T23:51:47.806Z,3.00
2022-07-29T23:54:17.287Z,2.83
2022-07-29T23:56:46.900Z,3.33
2022-07-29T23:59:16.522Z,3.08
